METAR Data
IDs: Format: Raw Decoded Include TAF

Data at: 1127 UTC 21 Sep 2018

KLBX 211053Z AUTO 13003KT 10SM CLR 27/26 A2993 RMK AO2 SLP135 T02720256
KLBX 211009Z AUTO 18003KT 10SM FEW018 SCT025 27/26 A2993 RMK AO2 T02720256
KLBX 210953Z AUTO 15005KT 10SM SCT020 BKN025 27/26 A2992 RMK AO2 SLP132 T02720256
KLBX 210853Z AUTO 16008KT 10SM CLR 27/25 A2992 RMK AO2 SLP130 T02720250 56015
KLBX 210753Z AUTO 16006KT 10SM CLR 28/25 A2993 RMK AO2 SLP134 T02780250
KLBX 210653Z AUTO 15006KT 10SM CLR 27/25 A2994 RMK AO2 SLP139 T02720250
KLBX 210607Z AUTO 15005KT 10SM SCT023 28/25 A2996 RMK AO2 T02780250
KLBX 210553Z AUTO 16005KT 10SM SCT021 BKN028 BKN034 28/25 A2996 RMK AO2 SLP145 60000 T02780250 10289 20261 403220239 58000
KLBX 210549Z AUTO 16005KT 10SM BKN023 BKN034 28/25 A2996 RMK AO2
KLBX 210453Z AUTO 15006KT 10SM CLR 27/26 A2996 RMK AO2 SLP146 T02720256
KLBX 210353Z AUTO 14008KT 10SM CLR 27/25 A2996 RMK AO2 SLP145 T02720250
KLBX 210253Z AUTO 14005KT 10SM FEW110 27/25 A2995 RMK AO2 SLP143 60000 T02670250 53009
KLBX 210153Z AUTO 14006KT 10SM FEW025 SCT060 SCT110 27/25 A2995 RMK AO2 RAB0057E15 SLP140 P0000 T02720250
KLBX 210053Z AUTO 14004KT 10SM CLR 27/24 A2993 RMK AO2 SLP136 T02720244
KLBX 202353Z AUTO 15006KT 10SM CLR 29/24 A2993 RMK AO2 SLP134 60000 T02890239 10322 20289 53006
KLBX 202253Z AUTO 15008KT 10SM FEW030 29/23 A2991 RMK AO2 SLP129 T02940233
KLBX 202153Z AUTO 17013KT 10SM FEW034 31/23 A2991 RMK AO2 SLP127 T03110233
KLBX 202053Z AUTO 17014KT 10SM FEW031 32/23 A2991 RMK AO2 RAE01 SLP127 P0000 60000 T03170233 58020
KLBX 201953Z AUTO 17012KT 10SM -RA FEW032 SCT060 BKN075 31/25 A2993 RMK AO2 RAB51 SLP135 P0000 T03060250
KLBX 201853Z AUTO 15012KT 10SM FEW029 FEW037 32/26 A2995 RMK AO2 LTG DSNT NW SLP142 T03170256
KLBX 201829Z AUTO 13007KT 10SM SCT026 BKN035 BKN060 29/25 A2996 RMK AO2 T02940250
KLBX 201819Z AUTO 14009KT 10SM BKN026 BKN046 29/25 A2996 RMK AO2 T02940250
KLBX 201753Z AUTO 15011KT 10SM SCT026 SCT090 30/25 A2997 RMK AO2 LTG DSNT N SLP148 60011 T03000250 10311 20256 56009
KLBX 201653Z AUTO 16008KT 10SM SCT026 BKN032 BKN040 31/26 A2998 RMK AO2 LTG DSNT W AND NW RAE06 SLP152 P0003 T03060256
KLBX 201649Z AUTO 16008KT 10SM SCT026 BKN034 BKN055 31/26 A2998 RMK AO2 LTG DSNT NW RAE06 P0003
KLBX 201634Z AUTO 15005KT 10SM VCTS FEW025 SCT031 BKN065 29/26 A2998 RMK AO2 RAE06 P0003 T02940261
KLBX 201610Z AUTO 00000KT 10SM FEW023 SCT044 BKN065 28/26 A2999 RMK AO2 RAE06 P0003 T02780256
KLBX 201603Z AUTO 22003KT 2 1/2SM -RA FEW015 SCT024 SCT040 28/25 A2999 RMK AO2 P0003 T02780250
KLBX 201555Z AUTO 11008G14KT 1 3/4SM +RA BR FEW015 BKN024 BKN040 27/25 A2999 RMK AO2 VIS 1/2V5 P0003 T02720250
KLBX 201553Z AUTO 13010G14KT 3SM +RA BR SCT024 BKN043 28/26 A3000 RMK AO2 RAB07E27B50 SLP157 P0008 T02780256
KLBX 201524Z AUTO 19005KT 10SM -RA BKN025 BKN038 29/26 A2999 RMK AO2 RAB07 P0001 T02890261
KLBX 201505Z AUTO 18005KT 10SM FEW100 29/26 A2998 RMK AO2 T02890256
KLBX 201453Z AUTO 16006KT 10SM VCTS CLR 29/25 A2998 RMK AO2 LTG DSNT S SLP151 60000 T02890250 51016
KLBX 201446Z AUTO 17008KT 10SM VCTS FEW023 29/26 A2997 RMK AO2 LTG DSNT S T02940256
KLBX 201353Z AUTO 00000KT 10SM FEW023 28/26 A2996 RMK AO2 SLP146 T02830261
KLBX 201253Z AUTO 00000KT 6SM BR FEW022 FEW030 SCT036 26/25 A2995 RMK AO2 RAB23E38 SLP141 P0000 T02560250
KLBX 201205Z AUTO 00000KT 6SM BR SCT022 25/24 A2994 RMK AO2 T02500244
KLBX 201153Z AUTO 00000KT 7SM VCTS SCT024 25/24 A2993 RMK AO2 SLP135 T02500244 10250 20239 50002
KLBX 201150Z AUTO 00000KT 6SM VCTS BR FEW024 25/24 A2993 RMK AO2
KLBX 201053Z AUTO 00000KT 6SM BR SCT020 BKN030 25/24 A2993 RMK AO2 SLP133 T02500244
KLBX 200953Z AUTO 00000KT 5SM BR CLR 24/24 A2992 RMK AO2 SLP133 T02440239
KLBX 200853Z AUTO 00000KT 7SM CLR 24/24 A2993 RMK AO2 SLP135 T02440239 58006
KLBX 200753Z AUTO 00000KT 10SM FEW019 25/24 A2995 RMK AO2 SLP140 T02500244
KLBX 200653Z AUTO 00000KT 9SM CLR 24/24 A2995 RMK AO2 SLP140 T02440239
KLBX 200553Z AUTO 00000KT 10SM CLR 24/23 A2995 RMK AO2 SLP141 T02440233 10289 20239 403280222 50005
KLBX 200453Z AUTO 00000KT 10SM CLR 25/24 A2995 RMK AO2 SLP143 T02500239
KLBX 200353Z AUTO 00000KT 10SM CLR 25/24 A2995 RMK AO2 SLP140 T02500239
KLBX 200253Z AUTO 00000KT 10SM CLR 25/24 A2993 RMK AO2 SLP136 T02500239 53011
KLBX 200153Z AUTO 00000KT 10SM CLR 26/24 A2993 RMK AO2 SLP133 T02560239
KLBX 200053Z AUTO 00000KT 10SM CLR 26/24 A2991 RMK AO2 SLP128 T02610239
KLBX 192353Z AUTO 16007KT 10SM CLR 29/23 A2990 RMK AO2 SLP125 T02890233 10328 20289 56004